createdAt,value
2019-02-02T00:00:17.572Z,15.23
2019-02-02T00:02:46.037Z,15.47
2019-02-02T00:05:14.471Z,15.90
2019-02-02T00:07:42.923Z,15.70
2019-02-02T00:10:11.604Z,15.40
2019-02-02T00:12:40.076Z,16.23
2019-02-02T00:15:11.153Z,18.53
2019-02-02T00:17:39.621Z,17.60
2019-02-02T00:20:11.734Z,17.60
2019-02-02T00:22:40.722Z,18.80
2019-02-02T00:25:10.782Z,17.90
2019-02-02T00:27:41.435Z,19.20
2019-02-02T00:30:15.183Z,17.70
2019-02-02T00:32:43.712Z,19.77
2019-02-02T00:35:12.461Z,21.33
2019-02-02T00:37:40.991Z,21.70
2019-02-02T00:40:14.892Z,20.40
2019-02-02T00:42:43.429Z,20.37
2019-02-02T00:45:19.779Z,21.30
2019-02-02T00:47:48.401Z,20.20
2019-02-02T00:50:17.277Z,21.23
2019-02-02T00:52:45.884Z,22.73
2019-02-02T00:55:16.632Z,21.67
2019-02-02T00:57:53.159Z,20.67
2019-02-02T01:00:17.673Z,19.43
2019-02-02T01:02:46.574Z,21.37
2019-02-02T01:05:17.911Z,21.23
2019-02-02T01:07:46.519Z,18.93
2019-02-02T01:10:18.054Z,21.40
2019-02-02T01:12:46.659Z,21.50
2019-02-02T01:15:16.517Z,20.57
2019-02-02T01:17:45.136Z,20.97
2019-02-02T01:20:14.152Z,21.27
2019-02-02T01:22:43.079Z,21.33
2019-02-02T01:25:14.249Z,22.37
2019-02-02T01:27:42.833Z,19.33
2019-02-02T01:30:17.743Z,20.07
2019-02-02T01:32:46.685Z,19.73
2019-02-02T01:35:19.179Z,19.83
2019-02-02T01:37:47.760Z,19.80
2019-02-02T01:40:26.792Z,20.77
2019-02-02T01:42:56.188Z,19.93
2019-02-02T01:45:26.292Z,20.13
2019-02-02T01:47:56.067Z,20.73
2019-02-02T01:50:26.484Z,19.03
2019-02-02T01:52:55.139Z,20.00
2019-02-02T01:55:23.683Z,18.53
2019-02-02T01:57:52.300Z,20.20
2019-02-02T02:00:23.672Z,20.40
2019-02-02T02:02:52.257Z,20.53
2019-02-02T02:05:21.010Z,19.50
2019-02-02T02:07:49.832Z,20.90
2019-02-02T02:10:19.407Z,21.53
2019-02-02T02:12:48.105Z,22.27
2019-02-02T02:15:18.089Z,20.07
2019-02-02T02:17:46.795Z,20.73
2019-02-02T02:20:17.488Z,19.93
2019-02-02T02:22:47.005Z,20.10
2019-02-02T02:25:17.859Z,22.50
2019-02-02T02:27:46.460Z,20.17
2019-02-02T02:30:20.030Z,21.60
2019-02-02T02:32:48.927Z,21.67
2019-02-02T02:35:17.592Z,21.40
2019-02-02T02:37:46.318Z,19.90
2019-02-02T02:40:20.363Z,19.93
2019-02-02T02:42:49.264Z,19.83
2019-02-02T02:45:17.859Z,18.40
2019-02-02T02:47:46.380Z,19.80
2019-02-02T02:50:17.336Z,21.73
2019-02-02T02:52:45.955Z,20.77
2019-02-02T02:55:16.431Z,20.50
2019-02-02T02:57:45.031Z,20.50
2019-02-02T03:00:21.816Z,20.03
2019-02-02T03:02:50.557Z,20.47
2019-02-02T03:05:19.438Z,22.70
2019-02-02T03:07:49.037Z,22.33
2019-02-02T03:10:22.528Z,22.57
2019-02-02T03:12:51.200Z,20.97
2019-02-02T03:15:20.312Z,20.83
2019-02-02T03:17:50.097Z,20.90
2019-02-02T03:20:18.796Z,19.73
2019-02-02T03:22:47.408Z,21.20
2019-02-02T03:25:21.695Z,20.60
2019-02-02T03:27:50.217Z,19.40
2019-02-02T03:30:20.117Z,20.73
2019-02-02T03:32:49.068Z,19.30
2019-02-02T03:35:22.888Z,20.87
2019-02-02T03:37:52.242Z,20.40
2019-02-02T03:40:22.557Z,19.97
2019-02-02T03:42:51.843Z,20.20
2019-02-02T03:45:24.519Z,21.30
2019-02-02T03:47:53.965Z,22.10
2019-02-02T03:50:22.595Z,20.37
2019-02-02T03:52:51.117Z,21.63
2019-02-02T03:55:20.193Z,20.77
2019-02-02T03:57:48.815Z,22.93
2019-02-02T04:00:21.792Z,23.13
2019-02-02T04:02:50.581Z,22.97
2019-02-02T04:05:21.882Z,23.37
2019-02-02T04:07:50.392Z,22.60
2019-02-02T04:10:18.993Z,22.33
2019-02-02T04:12:47.517Z,23.63
2019-02-02T04:15:18.212Z,23.73
2019-02-02T04:17:46.749Z,24.00
2019-02-02T04:20:17.916Z,23.47
2019-02-02T04:22:46.442Z,24.73
2019-02-02T04:25:15.819Z,26.27
2019-02-02T04:27:44.359Z,28.90
2019-02-02T04:30:26.760Z,24.77
2019-02-02T04:32:55.404Z,24.67
2019-02-02T04:35:24.082Z,23.73
2019-02-02T04:37:52.878Z,23.13
2019-02-02T04:40:21.875Z,23.93
2019-02-02T04:42:50.409Z,24.77
2019-02-02T04:45:19.124Z,23.20
2019-02-02T04:47:47.585Z,23.43
2019-02-02T04:50:18.178Z,23.10
2019-02-02T04:52:46.912Z,22.67
2019-02-02T04:55:17.074Z,22.83
2019-02-02T04:57:45.733Z,21.83
2019-02-02T05:00:17.360Z,22.47
2019-02-02T05:02:45.847Z,24.57
2019-02-02T05:05:16.376Z,26.23
2019-02-02T05:07:44.923Z,29.43
2019-02-02T05:10:22.355Z,28.27
2019-02-02T05:12:51.354Z,26.20
2019-02-02T05:15:20.061Z,26.63
2019-02-02T05:17:48.739Z,24.57
2019-02-02T05:20:19.023Z,24.20
2019-02-02T05:22:47.737Z,22.60
2019-02-02T05:25:16.640Z,21.57
2019-02-02T05:27:45.271Z,22.20
2019-02-02T05:30:25.921Z,19.10
2019-02-02T05:32:54.729Z,19.70
2019-02-02T05:35:23.339Z,19.40
2019-02-02T05:37:52.056Z,19.67
2019-02-02T05:40:21.743Z,20.83
2019-02-02T05:42:50.349Z,19.33
2019-02-02T05:45:20.753Z,21.37
2019-02-02T05:47:49.273Z,20.63
2019-02-02T05:50:22.352Z,20.07
2019-02-02T05:52:51.025Z,19.40
2019-02-02T05:55:21.024Z,19.87
2019-02-02T05:57:49.526Z,19.60
2019-02-02T06:00:22.540Z,19.33
2019-02-02T06:02:51.051Z,19.27
2019-02-02T06:05:19.558Z,19.23
2019-02-02T06:07:47.995Z,20.57
2019-02-02T06:10:20.297Z,21.33
2019-02-02T06:12:48.808Z,20.47
2019-02-02T06:15:17.779Z,20.73
2019-02-02T06:17:47.052Z,21.67
2019-02-02T06:20:16.542Z,21.30
2019-02-02T06:22:45.003Z,22.10
2019-02-02T06:25:15.252Z,22.23
2019-02-02T06:27:44.389Z,23.33
2019-02-02T06:30:20.861Z,22.87
2019-02-02T06:32:49.397Z,22.47
2019-02-02T06:35:18.885Z,22.67
2019-02-02T06:37:47.412Z,22.93
2019-02-02T06:40:17.080Z,23.70
2019-02-02T06:42:45.876Z,24.60
2019-02-02T06:45:20.487Z,24.70
2019-02-02T06:47:49.060Z,24.13
2019-02-02T06:50:17.831Z,24.90
2019-02-02T06:52:46.293Z,25.23
2019-02-02T06:55:16.481Z,28.10
2019-02-02T06:57:45.079Z,27.67
2019-02-02T07:00:19.136Z,30.90
2019-02-02T07:02:47.839Z,27.13
2019-02-02T07:05:16.813Z,29.97
2019-02-02T07:07:45.556Z,33.57
2019-02-02T07:10:19.672Z,32.93
2019-02-02T07:12:48.598Z,30.37
2019-02-02T07:15:19.556Z,29.63
2019-02-02T07:17:48.257Z,28.30
2019-02-02T07:20:17.031Z,28.27
2019-02-02T07:22:45.607Z,27.53
2019-02-02T07:25:14.467Z,26.53
2019-02-02T07:27:43.146Z,27.67
2019-02-02T07:30:28.129Z,25.37
2019-02-02T07:32:47.680Z,24.60
2019-02-02T07:35:16.501Z,23.13
2019-02-02T07:37:45.069Z,26.50
2019-02-02T07:40:32.844Z,24.73
2019-02-02T07:43:01.313Z,23.67
2019-02-02T07:45:31.303Z,24.80
2019-02-02T07:47:59.978Z,25.17
2019-02-02T07:50:28.722Z,23.40
2019-02-02T07:52:57.229Z,24.73
2019-02-02T07:55:25.748Z,27.90
2019-02-02T07:57:54.227Z,30.23
2019-02-02T08:00:39.603Z,29.53
2019-02-02T08:02:58.779Z,28.77
2019-02-02T08:05:27.485Z,25.07
2019-02-02T08:07:55.953Z,24.77
2019-02-02T08:10:24.536Z,24.37
2019-02-02T08:12:53.057Z,23.70
2019-02-02T08:15:24.321Z,23.23
2019-02-02T08:17:52.940Z,22.13
2019-02-02T08:20:21.653Z,23.80
2019-02-02T08:22:50.133Z,26.63
2019-02-02T08:25:19.132Z,24.20
2019-02-02T08:27:47.659Z,21.07
2019-02-02T08:30:24.271Z,20.30
2019-02-02T08:32:52.729Z,19.77
2019-02-02T08:35:21.418Z,19.63
2019-02-02T08:37:50.060Z,23.07
2019-02-02T08:40:19.859Z,20.27
2019-02-02T08:42:48.478Z,20.67
2019-02-02T08:45:17.193Z,20.93
2019-02-02T08:47:45.924Z,23.67
2019-02-02T08:50:28.595Z,21.33
2019-02-02T08:52:57.119Z,22.43
2019-02-02T08:55:25.641Z,21.17
2019-02-02T08:57:54.514Z,23.00
2019-02-02T09:00:23.569Z,19.17
2019-02-02T09:02:52.173Z,19.37
2019-02-02T09:05:22.202Z,20.50
2019-02-02T09:07:50.673Z,22.37
2019-02-02T09:10:27.149Z,22.17
2019-02-02T09:12:56.376Z,19.80
2019-02-02T09:15:25.227Z,21.77
2019-02-02T09:17:53.703Z,19.23
2019-02-02T09:20:22.310Z,20.70
2019-02-02T09:23:02.605Z,20.53
2019-02-02T09:25:21.388Z,20.87
2019-02-02T09:27:49.947Z,20.47
2019-02-02T09:30:23.856Z,20.53
2019-02-02T09:32:52.413Z,22.07
2019-02-02T09:35:20.942Z,21.73
2019-02-02T09:37:49.542Z,22.50
2019-02-02T09:40:19.346Z,22.30
2019-02-02T09:42:47.956Z,23.23
2019-02-02T09:45:21.012Z,23.50
2019-02-02T09:47:49.833Z,21.03
2019-02-02T09:50:21.395Z,23.47
2019-02-02T09:52:50.001Z,25.30
2019-02-02T09:55:20.489Z,22.90
2019-02-02T09:57:49.446Z,22.97
2019-02-02T10:00:23.003Z,27.60
2019-02-02T10:02:51.705Z,22.40
2019-02-02T10:05:20.505Z,27.17
2019-02-02T10:07:49.472Z,27.43
2019-02-02T10:10:22.949Z,25.03
2019-02-02T10:12:51.448Z,27.03
2019-02-02T10:15:20.156Z,28.27
2019-02-02T10:17:49.761Z,27.93
2019-02-02T10:20:24.076Z,26.47
2019-02-02T10:22:53.003Z,27.43
2019-02-02T10:25:23.620Z,26.93
2019-02-02T10:27:52.301Z,23.53
2019-02-02T10:30:26.427Z,27.47
2019-02-02T10:32:54.972Z,26.33
2019-02-02T10:35:23.504Z,27.23
2019-02-02T10:37:51.951Z,28.67
2019-02-02T10:40:20.553Z,26.00
2019-02-02T10:42:49.060Z,27.30
2019-02-02T10:45:18.635Z,25.90
2019-02-02T10:47:47.315Z,28.60
2019-02-02T10:50:18.856Z,28.03
2019-02-02T10:52:47.321Z,30.73
2019-02-02T10:55:16.429Z,27.37
2019-02-02T10:57:45.209Z,28.53
2019-02-02T11:00:21.694Z,28.13
2019-02-02T11:02:50.368Z,30.70
2019-02-02T11:05:19.025Z,33.70
2019-02-02T11:07:47.848Z,32.10
2019-02-02T11:10:27.590Z,31.30
2019-02-02T11:12:56.598Z,32.50
2019-02-02T11:15:25.452Z,32.40
2019-02-02T11:17:54.144Z,32.23
2019-02-02T11:20:28.379Z,31.53
2019-02-02T11:22:57.033Z,32.20
2019-02-02T11:25:25.550Z,32.30
2019-02-02T11:27:54.395Z,32.33
2019-02-02T11:30:23.583Z,29.90
2019-02-02T11:32:52.116Z,32.73
2019-02-02T11:35:22.016Z,32.73
2019-02-02T11:37:50.612Z,30.93
2019-02-02T11:40:30.455Z,32.90
2019-02-02T11:42:59.433Z,30.87
2019-02-02T11:45:28.239Z,31.27
2019-02-02T11:47:56.872Z,31.83
2019-02-02T11:50:25.405Z,30.70
2019-02-02T11:52:53.935Z,34.33
2019-02-02T11:55:27.209Z,32.33
2019-02-02T11:57:55.904Z,32.30
2019-02-02T12:00:30.287Z,31.90
2019-02-02T12:02:58.908Z,31.60
2019-02-02T12:05:28.362Z,30.17
2019-02-02T12:07:57.157Z,31.67
2019-02-02T12:10:30.663Z,31.07
2019-02-02T12:12:59.256Z,29.93
2019-02-02T12:15:27.967Z,31.87
2019-02-02T12:17:56.412Z,30.83
2019-02-02T12:20:25.513Z,30.80
2019-02-02T12:22:54.290Z,31.80
2019-02-02T12:25:22.901Z,31.53
2019-02-02T12:27:51.677Z,31.27
2019-02-02T12:30:31.285Z,31.23
2019-02-02T12:33:03.057Z,31.87
2019-02-02T12:35:30.252Z,27.03
2019-02-02T12:37:58.765Z,27.73
2019-02-02T12:40:28.275Z,26.70
2019-02-02T12:42:56.940Z,26.67
2019-02-02T12:45:40.104Z,27.00
2019-02-02T12:48:08.686Z,27.73
2019-02-02T12:50:37.127Z,25.53
2019-02-02T12:53:05.643Z,23.83
2019-02-02T12:55:34.212Z,23.43
2019-02-02T12:58:02.747Z,24.20
2019-02-02T13:00:31.180Z,24.43
2019-02-02T13:02:59.754Z,24.00
2019-02-02T13:05:28.304Z,26.13
2019-02-02T13:07:56.770Z,27.60
2019-02-02T13:10:29.884Z,27.50
2019-02-02T13:12:58.421Z,27.60
2019-02-02T13:15:26.862Z,28.33
2019-02-02T13:17:55.451Z,29.10
2019-02-02T13:20:24.125Z,30.40
2019-02-02T13:22:52.680Z,30.53
2019-02-02T13:25:22.671Z,28.57
2019-02-02T13:27:51.279Z,30.93
2019-02-02T13:30:28.867Z,29.27
2019-02-02T13:32:57.586Z,31.80
2019-02-02T13:35:27.175Z,31.13
2019-02-02T13:37:55.688Z,32.97
2019-02-02T13:40:24.913Z,30.40
2019-02-02T13:42:53.477Z,30.67
2019-02-02T13:45:23.491Z,31.60
2019-02-02T13:47:52.167Z,30.03
2019-02-02T13:50:21.286Z,26.13
2019-02-02T13:52:51.772Z,27.27
2019-02-02T13:55:20.432Z,28.07
2019-02-02T13:57:48.995Z,24.63
2019-02-02T14:00:25.876Z,23.47
2019-02-02T14:03:02.268Z,24.30
2019-02-02T14:05:24.720Z,24.57
2019-02-02T14:07:53.532Z,22.53
2019-02-02T14:10:24.400Z,22.53
2019-02-02T14:12:52.914Z,20.87
2019-02-02T14:15:21.488Z,21.77
2019-02-02T14:17:50.023Z,23.37
2019-02-02T14:20:18.604Z,23.53
2019-02-02T14:22:47.147Z,24.23
2019-02-02T14:25:16.636Z,23.73
2019-02-02T14:27:45.574Z,23.70
2019-02-02T14:30:21.471Z,22.30
2019-02-02T14:32:50.074Z,23.00
2019-02-02T14:35:21.128Z,23.77
2019-02-02T14:37:49.587Z,25.77
2019-02-02T14:40:19.880Z,26.20
2019-02-02T14:42:48.830Z,27.77
2019-02-02T14:45:19.871Z,24.70
2019-02-02T14:47:48.344Z,25.77
2019-02-02T14:50:19.181Z,25.40
2019-02-02T14:52:48.321Z,22.40
2019-02-02T14:55:28.449Z,25.13
2019-02-02T14:57:57.056Z,21.67
2019-02-02T15:00:30.428Z,19.97
2019-02-02T15:02:59.032Z,22.10
2019-02-02T15:05:27.933Z,22.37
2019-02-02T15:07:56.513Z,21.47
2019-02-02T15:10:25.227Z,22.63
2019-02-02T15:12:53.731Z,22.10
2019-02-02T15:15:22.359Z,20.60
2019-02-02T15:17:50.863Z,21.67
2019-02-02T15:20:31.028Z,20.67
2019-02-02T15:23:00.459Z,20.67
2019-02-02T15:25:28.967Z,22.47
2019-02-02T15:27:57.484Z,21.17
2019-02-02T15:30:34.408Z,21.00
2019-02-02T15:33:02.854Z,20.60
2019-02-02T15:35:31.456Z,21.73
2019-02-02T15:37:59.964Z,20.17
2019-02-02T15:40:31.496Z,21.20
2019-02-02T15:42:58.759Z,21.33
2019-02-02T15:45:29.996Z,21.10
2019-02-02T15:47:58.459Z,22.47
2019-02-02T15:50:26.895Z,22.93
2019-02-02T15:52:55.491Z,23.57
2019-02-02T15:55:24.896Z,21.43
2019-02-02T15:57:53.477Z,19.83
2019-02-02T16:00:25.064Z,21.63
2019-02-02T16:02:53.534Z,21.60
2019-02-02T16:05:22.625Z,22.40
2019-02-02T16:07:51.163Z,22.43
2019-02-02T16:10:22.578Z,20.03
2019-02-02T16:12:51.280Z,20.40
2019-02-02T16:15:19.855Z,22.00
2019-02-02T16:17:48.400Z,21.13
2019-02-02T16:20:20.072Z,20.43
2019-02-02T16:22:48.867Z,19.60
2019-02-02T16:25:17.481Z,20.80
2019-02-02T16:27:46.023Z,19.13
2019-02-02T16:30:19.961Z,20.30
2019-02-02T16:32:48.497Z,20.50
2019-02-02T16:35:17.171Z,19.40
2019-02-02T16:37:46.013Z,20.87
2019-02-02T16:40:21.780Z,20.43
2019-02-02T16:42:53.351Z,19.67
2019-02-02T16:45:23.045Z,20.00
2019-02-02T16:47:52.059Z,20.80
2019-02-02T16:50:21.136Z,18.53
2019-02-02T16:52:49.669Z,20.47
2019-02-02T16:55:19.400Z,20.23
2019-02-02T16:57:47.912Z,20.03
2019-02-02T17:00:19.180Z,21.40
2019-02-02T17:02:47.765Z,22.03
2019-02-02T17:05:16.364Z,24.53
2019-02-02T17:07:46.455Z,23.70
2019-02-02T17:10:23.240Z,25.07
2019-02-02T17:12:51.747Z,24.13
2019-02-02T17:15:20.453Z,22.43
2019-02-02T17:17:48.968Z,24.13
2019-02-02T17:20:29.475Z,22.67
2019-02-02T17:22:58.025Z,22.53
2019-02-02T17:25:26.572Z,22.80
2019-02-02T17:27:55.112Z,23.27
2019-02-02T17:30:25.722Z,22.60
2019-02-02T17:33:00.800Z,24.63
2019-02-02T17:35:30.851Z,27.43
2019-02-02T17:37:59.655Z,37.87
2019-02-02T17:40:29.580Z,27.80
2019-02-02T17:42:58.476Z,27.17
2019-02-02T17:45:26.985Z,27.43
2019-02-02T17:47:55.508Z,25.33
2019-02-02T17:50:28.539Z,26.63
2019-02-02T17:52:57.115Z,26.97
2019-02-02T17:55:25.712Z,28.57
2019-02-02T17:57:54.387Z,30.30
2019-02-02T18:00:35.628Z,28.80
2019-02-02T18:03:05.207Z,27.77
2019-02-02T18:05:34.014Z,26.63
2019-02-02T18:08:02.476Z,28.23
2019-02-02T18:10:30.914Z,29.83
2019-02-02T18:12:59.501Z,29.23
2019-02-02T18:15:28.237Z,28.93
2019-02-02T18:17:56.713Z,28.63
2019-02-02T18:20:25.216Z,30.60
2019-02-02T18:22:53.692Z,29.90
2019-02-02T18:25:22.136Z,29.97
2019-02-02T18:27:50.616Z,31.13
2019-02-02T18:30:21.532Z,30.73
2019-02-02T18:32:50.763Z,33.73
2019-02-02T18:35:19.555Z,31.50
2019-02-02T18:37:48.070Z,30.13
2019-02-02T18:40:21.815Z,30.50
2019-02-02T18:42:50.331Z,30.53
2019-02-02T18:45:21.368Z,30.53
2019-02-02T18:47:49.812Z,31.50
2019-02-02T18:50:18.530Z,32.47
2019-02-02T18:52:48.884Z,33.70
2019-02-02T18:55:23.217Z,30.30
2019-02-02T18:57:51.892Z,32.30
2019-02-02T19:00:21.398Z,30.93
2019-02-02T19:02:49.934Z,32.13
2019-02-02T19:05:18.491Z,30.83
2019-02-02T19:07:46.927Z,32.50
2019-02-02T19:10:18.829Z,31.90
2019-02-02T19:12:47.280Z,32.13
2019-02-02T19:15:15.807Z,33.20
2019-02-02T19:17:44.419Z,30.73
2019-02-02T19:20:15.826Z,35.27
2019-02-02T19:22:44.570Z,33.83
2019-02-02T19:25:13.241Z,34.83
2019-02-02T19:27:41.899Z,35.97
2019-02-02T19:30:16.245Z,33.57
2019-02-02T19:32:44.877Z,35.97
2019-02-02T19:35:16.033Z,34.03
2019-02-02T19:37:44.134Z,35.13
2019-02-02T19:40:15.251Z,34.93
2019-02-02T19:42:43.852Z,35.10
2019-02-02T19:45:17.951Z,35.67
2019-02-02T19:47:46.910Z,34.63
2019-02-02T19:50:18.063Z,35.53
2019-02-02T19:52:47.020Z,34.63
2019-02-02T19:55:15.636Z,36.50
2019-02-02T19:57:44.150Z,36.50
2019-02-02T20:00:15.837Z,36.20
2019-02-02T20:02:44.341Z,38.13
2019-02-02T20:05:13.046Z,37.53
2019-02-02T20:07:41.581Z,36.57
2019-02-02T20:10:13.535Z,36.80
2019-02-02T20:12:42.053Z,38.60
2019-02-02T20:15:15.077Z,38.67
2019-02-02T20:17:45.554Z,38.27
2019-02-02T20:20:16.156Z,37.23
2019-02-02T20:22:44.656Z,35.37
2019-02-02T20:25:14.260Z,39.77
2019-02-02T20:27:42.800Z,39.33
2019-02-02T20:30:24.897Z,39.00
2019-02-02T20:32:53.441Z,40.07
2019-02-02T20:35:22.020Z,42.17
2019-02-02T20:37:50.837Z,41.43
2019-02-02T20:40:26.875Z,41.07
2019-02-02T20:42:55.528Z,38.30
2019-02-02T20:45:32.090Z,35.07
2019-02-02T20:48:00.747Z,40.23
2019-02-02T20:50:29.440Z,37.57
2019-02-02T20:52:58.306Z,37.07
2019-02-02T20:55:32.598Z,36.37
2019-02-02T20:58:01.207Z,38.33
2019-02-02T21:00:31.319Z,37.97
2019-02-02T21:02:59.884Z,38.43
2019-02-02T21:05:31.590Z,37.77
2019-02-02T21:08:18.380Z,38.47
2019-02-02T21:10:47.090Z,38.10
2019-02-02T21:13:16.202Z,37.17
2019-02-02T21:15:44.645Z,39.57
2019-02-02T21:18:13.144Z,36.60
2019-02-02T21:20:41.656Z,37.40
2019-02-02T21:23:10.289Z,35.37
2019-02-02T21:25:38.740Z,37.57
2019-02-02T21:28:07.276Z,39.40
2019-02-02T21:30:36.453Z,37.60
2019-02-02T21:33:05.676Z,38.43
2019-02-02T21:35:34.301Z,34.33
2019-02-02T21:38:02.941Z,32.50
2019-02-02T21:40:33.313Z,34.10
2019-02-02T21:43:02.131Z,38.77
2019-02-02T21:45:30.800Z,38.77
2019-02-02T21:47:59.276Z,34.50
2019-02-02T21:50:27.795Z,33.67
2019-02-02T21:52:56.260Z,35.57
2019-02-02T21:55:27.133Z,34.10
2019-02-02T21:57:55.697Z,32.67
2019-02-02T22:00:35.984Z,32.30
2019-02-02T22:03:06.250Z,33.73
2019-02-02T22:05:34.692Z,36.50
2019-02-02T22:08:03.291Z,32.83
2019-02-02T22:10:31.849Z,33.20
2019-02-02T22:13:00.395Z,35.60
2019-02-02T22:15:30.254Z,34.87
2019-02-02T22:17:58.849Z,32.47
2019-02-02T22:20:27.540Z,36.37
2019-02-02T22:22:56.350Z,36.67
2019-02-02T22:25:27.908Z,35.17
2019-02-02T22:27:56.489Z,36.67
2019-02-02T22:30:33.164Z,36.73
2019-02-02T22:33:01.883Z,35.90
2019-02-02T22:35:30.420Z,32.93
2019-02-02T22:37:59.484Z,38.90
2019-02-02T22:40:28.759Z,34.97
2019-02-02T22:42:57.282Z,31.77
2019-02-02T22:45:25.892Z,40.43
2019-02-02T22:47:54.445Z,35.27
2019-02-02T22:50:27.425Z,35.83
2019-02-02T22:52:56.499Z,37.90
2019-02-02T22:55:25.663Z,37.90
2019-02-02T22:57:54.625Z,33.03
2019-02-02T23:00:51.727Z,36.60
2019-02-02T23:03:40.829Z,33.53
2019-02-02T23:06:18.414Z,35.40
2019-02-02T23:09:08.573Z,34.53
2019-02-02T23:11:46.161Z,34.30
2019-02-02T23:14:46.970Z,35.13
2019-02-02T23:17:15.488Z,34.97
2019-02-02T23:19:43.941Z,35.63
2019-02-02T23:22:12.491Z,34.47
2019-02-02T23:24:41.080Z,33.57
2019-02-02T23:27:09.550Z,36.80
2019-02-02T23:29:38.069Z,35.37
2019-02-02T23:32:08.464Z,35.87
2019-02-02T23:34:36.904Z,37.60
2019-02-02T23:37:05.824Z,38.30
2019-02-02T23:39:34.275Z,37.20
2019-02-02T23:42:02.813Z,41.10
2019-02-02T23:44:31.328Z,40.93
2019-02-02T23:46:59.801Z,39.37
2019-02-02T23:49:28.258Z,42.67
2019-02-02T23:51:57.004Z,41.93
2019-02-02T23:54:25.528Z,39.93
2019-02-02T23:56:53.996Z,42.27
2019-02-02T23:59:22.444Z,39.10
